Time;durP1;ratioP1;P1;durP2;ratioP2;P2;SDS_P1;SDS_P2;PMS_P1;PMS_P2;Temp;Humidity;BMP_temperature;BMP_pressure;BME280_temperature;BME280_humidity;BME280_pressure;Samples;Min_cycle;Max_cycle;Signal;HPM_P1;HPM_P2
2022/06/08 00:00:53;;;;;;;1.60;1.50;;;;;;;;;;5032661;28;20136;-51
2022/06/08 00:03:23;;;;;;;2.97;1.75;;;;;;;;;;5024268;28;20033;-51
2022/06/08 00:05:49;;;;;;;3.83;1.60;;;;;;;;;;5020331;28;20044;-50
2022/06/08 00:08:15;;;;;;;3.03;1.70;;;;;;;;;;5028534;28;20525;-50
2022/06/08 00:10:41;;;;;;;2.92;1.50;;;;;;;;;;5024108;28;20112;-53
2022/06/08 00:13:07;;;;;;;2.47;1.67;;;;;;;;;;5023764;28;20030;-51
2022/06/08 00:15:33;;;;;;;1.55;1.45;;;;;;;;;;5016058;28;20041;-50
2022/06/08 00:18:01;;;;;;;2.42;1.65;;;;;;;;;;5024543;28;20477;-51
2022/06/08 00:20:27;;;;;;;1.70;1.58;;;;;;;;;;5029204;28;20489;-51
2022/06/08 00:22:53;;;;;;;2.67;1.80;;;;;;;;;;5024530;28;20038;-51
2022/06/08 00:25:20;;;;;;;5.93;1.55;;;;;;;;;;5027757;28;20044;-51
2022/06/08 00:27:46;;;;;;;4.68;1.80;;;;;;;;;;5020517;28;20022;-51
2022/06/08 00:30:12;;;;;;;2.40;1.70;;;;;;;;;;5030430;28;20447;-53
2022/06/08 00:32:38;;;;;;;1.80;1.50;;;;;;;;;;5027584;28;20021;-50
2022/06/08 00:35:05;;;;;;;3.80;1.80;;;;;;;;;;5024739;28;20095;-53
2022/06/08 00:37:31;;;;;;;2.03;1.70;;;;;;;;;;5028066;28;20057;-51
2022/06/08 00:39:57;;;;;;;2.72;1.52;;;;;;;;;;5017596;28;20034;-51
2022/06/08 00:42:24;;;;;;;1.60;1.50;;;;;;;;;;5022010;28;20079;-51
2022/06/08 00:44:56;;;;;;;3.28;2.05;;;;;;;;;;5028852;28;20033;-51
2022/06/08 00:47:25;;;;;;;1.88;1.70;;;;;;;;;;5019166;28;20113;-51
2022/06/08 00:49:55;;;;;;;1.88;1.58;;;;;;;;;;5030447;28;20752;-52
2022/06/08 00:52:21;;;;;;;5.03;1.95;;;;;;;;;;5023226;28;20025;-51
2022/06/08 00:54:50;;;;;;;4.03;1.50;;;;;;;;;;5022863;28;20445;-50
2022/06/08 00:57:27;;;;;;;2.63;1.77;;;;;;;;;;5022932;28;20030;-51
2022/06/08 00:59:59;;;;;;;2.83;1.55;;;;;;;;;;5031566;28;20888;-51
2022/06/08 01:02:25;;;;;;;2.22;1.80;;;;;;;;;;5027115;28;20041;-51
2022/06/08 01:04:51;;;;;;;2.83;2.00;;;;;;;;;;5022097;28;20033;-50
2022/06/08 01:07:20;;;;;;;2.85;1.70;;;;;;;;;;5028006;28;20115;-51
2022/06/08 01:09:46;;;;;;;3.50;1.88;;;;;;;;;;5019257;28;20819;-50
2022/06/08 01:12:17;;;;;;;2.40;1.90;;;;;;;;;;5030324;28;20032;-52
2022/06/08 01:14:44;;;;;;;2.83;1.88;;;;;;;;;;5030128;28;20022;-51
2022/06/08 01:17:14;;;;;;;2.00;1.52;;;;;;;;;;5015945;28;20022;-53
2022/06/08 01:19:41;;;;;;;3.25;1.73;;;;;;;;;;5029745;28;20037;-51
2022/06/08 01:22:08;;;;;;;3.50;2.40;;;;;;;;;;5024804;28;20034;-52
2022/06/08 01:24:35;;;;;;;2.40;1.75;;;;;;;;;;5030462;28;20108;-50
2022/06/08 01:27:13;;;;;;;2.47;1.90;;;;;;;;;;5027095;28;20450;-50
2022/06/08 01:30:01;;;;;;;2.22;1.85;;;;;;;;;;5022711;28;20131;-50
2022/06/08 01:32:35;;;;;;;2.20;1.90;;;;;;;;;;5022221;28;20147;-51
2022/06/08 01:35:08;;;;;;;2.70;2.00;;;;;;;;;;5025929;28;20036;-51
2022/06/08 01:37:48;;;;;;;2.55;2.15;;;;;;;;;;5028637;28;20035;-51
2022/06/08 01:40:28;;;;;;;1.92;1.63;;;;;;;;;;5029605;28;20065;-51
2022/06/08 01:43:13;;;;;;;2.90;2.00;;;;;;;;;;5020195;28;20492;-50
2022/06/08 01:45:58;;;;;;;3.63;2.40;;;;;;;;;;5029484;28;20574;-51
2022/06/08 01:48:39;;;;;;;2.90;1.80;;;;;;;;;;5023584;28;20484;-50
2022/06/08 01:51:28;;;;;;;1.95;1.75;;;;;;;;;;5023091;28;20029;-50
2022/06/08 01:54:02;;;;;;;3.05;2.00;;;;;;;;;;4993340;28;20437;-50
2022/06/08 01:56:34;;;;;;;2.92;2.40;;;;;;;;;;5027053;28;20044;-51
2022/06/08 01:59:07;;;;;;;2.53;2.05;;;;;;;;;;5028163;28;20052;-50
2022/06/08 02:01:40;;;;;;;5.07;2.33;;;;;;;;;;5019126;28;20554;-51
2022/06/08 02:04:12;;;;;;;2.33;2.13;;;;;;;;;;5025292;28;20029;-53
2022/06/08 02:06:42;;;;;;;2.78;2.25;;;;;;;;;;5027201;28;20108;-51
2022/06/08 02:09:11;;;;;;;2.33;1.88;;;;;;;;;;5017818;28;20141;-52
2022/06/08 02:11:40;;;;;;;3.28;2.47;;;;;;;;;;5007206;28;20033;-51
2022/06/08 02:14:26;;;;;;;2.50;2.03;;;;;;;;;;5013838;28;20022;-50
2022/06/08 02:17:03;;;;;;;2.47;2.10;;;;;;;;;;5022385;28;20025;-50
2022/06/08 02:19:39;;;;;;;2.65;2.00;;;;;;;;;;5015892;28;20042;-51
2022/06/08 02:22:11;;;;;;;2.88;2.00;;;;;;;;;;5018558;28;20068;-50
2022/06/08 02:24:42;;;;;;;3.95;2.35;;;;;;;;;;5027986;28;20037;-51
2022/06/08 02:27:15;;;;;;;2.63;2.10;;;;;;;;;;5024106;28;20191;-50
2022/06/08 02:29:44;;;;;;;5.05;2.30;;;;;;;;;;5025584;28;20033;-52
2022/06/08 02:35:01;;;;;;;2.92;2.60;;;;;;;;;;5021292;28;20091;-51
2022/06/08 02:37:29;;;;;;;4.82;2.42;;;;;;;;;;5026225;28;20040;-50
2022/06/08 02:40:17;;;;;;;3.83;2.63;;;;;;;;;;5025565;28;20102;-50
2022/06/08 02:42:45;;;;;;;3.30;2.65;;;;;;;;;;5016082;28;20469;-51
2022/06/08 02:45:13;;;;;;;4.10;2.10;;;;;;;;;;5022543;28;20529;-52
2022/06/08 02:47:40;;;;;;;3.03;2.00;;;;;;;;;;5020342;28;20481;-50
2022/06/08 02:50:15;;;;;;;4.05;2.40;;;;;;;;;;5028590;28;20029;-50
2022/06/08 02:52:45;;;;;;;5.15;2.40;;;;;;;;;;5026113;28;20044;-50
2022/06/08 02:55:18;;;;;;;3.40;2.47;;;;;;;;;;5024773;28;20484;-50
2022/06/08 02:57:52;;;;;;;5.45;2.63;;;;;;;;;;5013890;28;20058;-52
2022/06/08 03:00:24;;;;;;;3.03;2.47;;;;;;;;;;5023998;28;20047;-49
2022/06/08 03:02:55;;;;;;;3.05;2.30;;;;;;;;;;5017401;28;20108;-50
2022/06/08 03:05:25;;;;;;;3.75;2.47;;;;;;;;;;5025243;28;20022;-50
2022/06/08 03:07:53;;;;;;;2.85;2.33;;;;;;;;;;5019155;28;20045;-50
2022/06/08 03:10:20;;;;;;;2.85;2.33;;;;;;;;;;5026771;28;20037;-50
2022/06/08 03:12:53;;;;;;;2.90;2.40;;;;;;;;;;5019499;28;20029;-51
2022/06/08 03:15:23;;;;;;;2.45;2.25;;;;;;;;;;5017933;28;20096;-50
2022/06/08 03:17:50;;;;;;;2.97;2.30;;;;;;;;;;5014716;28;20025;-50
2022/06/08 03:20:17;;;;;;;2.42;2.22;;;;;;;;;;5018860;28;20037;-51
2022/06/08 03:22:43;;;;;;;2.85;2.55;;;;;;;;;;5016781;28;20035;-51
2022/06/08 03:25:10;;;;;;;3.30;2.72;;;;;;;;;;5024061;28;20033;-51
2022/06/08 03:27:39;;;;;;;3.85;2.35;;;;;;;;;;5021331;28;20030;-50
2022/06/08 03:30:06;;;;;;;3.10;2.10;;;;;;;;;;5030466;28;20025;-50
2022/06/08 03:32:32;;;;;;;3.42;2.42;;;;;;;;;;5017306;28;20022;-51
2022/06/08 03:34:58;;;;;;;2.70;2.10;;;;;;;;;;5034143;28;20551;-52
2022/06/08 03:37:24;;;;;;;5.22;2.58;;;;;;;;;;5015236;28;20433;-50
2022/06/08 03:39:50;;;;;;;2.58;2.33;;;;;;;;;;5011844;28;20407;-51
2022/06/08 03:42:17;;;;;;;4.00;2.50;;;;;;;;;;4999873;28;21070;-51
2022/06/08 03:44:43;;;;;;;5.97;2.10;;;;;;;;;;5028787;28;20041;-50
2022/06/08 03:47:11;;;;;;;7.97;2.60;;;;;;;;;;4995601;28;20037;-51
2022/06/08 03:49:37;;;;;;;4.57;2.42;;;;;;;;;;5011260;28;20049;-51
2022/06/08 03:52:07;;;;;;;3.08;2.60;;;;;;;;;;5021813;28;20430;-51
2022/06/08 03:54:34;;;;;;;2.90;2.28;;;;;;;;;;5026849;28;20029;-51
2022/06/08 03:57:03;;;;;;;3.53;2.25;;;;;;;;;;5026907;28;20032;-51
2022/06/08 03:59:29;;;;;;;3.80;2.15;;;;;;;;;;5032872;28;20100;-50
2022/06/08 04:01:55;;;;;;;3.75;2.67;;;;;;;;;;5024178;28;20040;-50
2022/06/08 04:04:21;;;;;;;2.88;2.55;;;;;;;;;;5018858;28;20065;-51
2022/06/08 04:06:49;;;;;;;2.30;1.65;;;;;;;;;;5018547;28;20022;-50
2022/06/08 04:09:15;;;;;;;3.42;2.22;;;;;;;;;;5020347;28;20056;-50
2022/06/08 04:11:41;;;;;;;2.58;2.20;;;;;;;;;;5026815;28;20018;-51
2022/06/08 04:14:07;;;;;;;3.78;2.70;;;;;;;;;;5043357;28;20479;-50
2022/06/08 04:16:33;;;;;;;4.95;2.53;;;;;;;;;;5026783;28;20116;-53
2022/06/08 04:19:00;;;;;;;3.75;2.45;;;;;;;;;;5031157;28;20021;-50
2022/06/08 04:21:26;;;;;;;4.60;2.75;;;;;;;;;;5014801;28;20025;-51
2022/06/08 04:23:52;;;;;;;4.30;3.28;;;;;;;;;;5023028;28;20034;-50
2022/06/08 04:26:20;;;;;;;4.60;2.63;;;;;;;;;;5000462;28;20028;-49
2022/06/08 04:28:46;;;;;;;6.90;2.67;;;;;;;;;;5017330;28;20079;-50
2022/06/08 04:31:12;;;;;;;3.22;2.22;;;;;;;;;;5026162;28;20463;-50
2022/06/08 04:33:38;;;;;;;3.67;2.03;;;;;;;;;;5031780;28;20029;-50
2022/06/08 04:36:05;;;;;;;2.92;1.85;;;;;;;;;;5028117;28;20025;-50
2022/06/08 04:38:31;;;;;;;3.38;2.22;;;;;;;;;;5029910;28;20448;-50
2022/06/08 04:40:57;;;;;;;1.98;1.70;;;;;;;;;;5023025;28;20033;-50
2022/06/08 04:43:23;;;;;;;4.30;2.38;;;;;;;;;;5016186;28;20038;-50
2022/06/08 04:45:49;;;;;;;4.50;2.70;;;;;;;;;;5024900;28;20060;-50
2022/06/08 04:48:15;;;;;;;5.32;2.50;;;;;;;;;;5031134;28;20441;-51
2022/06/08 04:50:41;;;;;;;6.72;2.92;;;;;;;;;;5031481;28;20045;-51
2022/06/08 04:53:07;;;;;;;2.35;1.65;;;;;;;;;;5025965;28;20030;-51
2022/06/08 04:55:34;;;;;;;2.95;1.88;;;;;;;;;;5021303;28;20026;-50
2022/06/08 04:58:01;;;;;;;2.47;1.85;;;;;;;;;;5012318;28;20477;-50
2022/06/08 05:00:28;;;;;;;4.07;1.90;;;;;;;;;;5027594;28;20493;-50
2022/06/08 05:02:55;;;;;;;3.83;2.15;;;;;;;;;;5019991;28;20172;-50
2022/06/08 05:05:23;;;;;;;3.78;1.77;;;;;;;;;;5022423;28;20021;-51
2022/06/08 05:07:49;;;;;;;4.43;2.13;;;;;;;;;;5020292;28;20040;-50
2022/06/08 05:10:16;;;;;;;2.40;2.20;;;;;;;;;;5028246;28;20061;-51
2022/06/08 05:12:43;;;;;;;2.22;1.70;;;;;;;;;;5017593;28;20049;-50
2022/06/08 05:15:18;;;;;;;3.08;2.03;;;;;;;;;;5028691;28;20036;-50
2022/06/08 05:17:44;;;;;;;2.70;2.08;;;;;;;;;;5006344;28;20036;-49
2022/06/08 05:20:11;;;;;;;3.47;2.10;;;;;;;;;;5035216;28;20404;-51
2022/06/08 05:22:37;;;;;;;5.07;2.42;;;;;;;;;;5024106;28;20025;-51
2022/06/08 05:25:04;;;;;;;4.70;2.10;;;;;;;;;;5025009;28;20034;-52
2022/06/08 05:27:30;;;;;;;4.80;1.90;;;;;;;;;;5025465;28;20116;-53
2022/06/08 05:29:56;;;;;;;3.95;2.00;;;;;;;;;;5027472;28;20056;-51
2022/06/08 05:32:22;;;;;;;5.65;2.70;;;;;;;;;;5028234;28;20469;-52
2022/06/08 05:34:48;;;;;;;2.30;2.10;;;;;;;;;;5017537;28;20392;-50
2022/06/08 05:37:14;;;;;;;4.15;2.13;;;;;;;;;;5024614;28;20112;-51
2022/06/08 05:39:41;;;;;;;4.45;2.47;;;;;;;;;;5025719;28;20045;-51
2022/06/08 05:42:07;;;;;;;3.13;2.28;;;;;;;;;;5035148;28;20115;-50
2022/06/08 05:44:33;;;;;;;3.20;2.17;;;;;;;;;;5024875;28;20026;-51
2022/06/08 05:46:59;;;;;;;2.95;2.17;;;;;;;;;;5025260;28;20036;-50
2022/06/08 05:49:26;;;;;;;3.53;2.20;;;;;;;;;;5028606;28;20040;-50
2022/06/08 05:51:52;;;;;;;7.60;2.15;;;;;;;;;;5027028;28;20036;-49
2022/06/08 05:54:17;;;;;;;2.83;2.20;;;;;;;;;;5024648;28;20037;-50
2022/06/08 05:56:43;;;;;;;2.00;1.80;;;;;;;;;;5030727;28;20060;-52
2022/06/08 05:59:09;;;;;;;2.67;2.10;;;;;;;;;;5022455;28;20029;-50
2022/06/08 06:01:36;;;;;;;2.50;1.90;;;;;;;;;;5020095;28;20034;-50
2022/06/08 06:04:05;;;;;;;5.40;2.15;;;;;;;;;;5017564;28;20034;-51
2022/06/08 06:06:31;;;;;;;3.80;2.42;;;;;;;;;;5030636;28;20025;-51
2022/06/08 06:08:58;;;;;;;4.75;2.17;;;;;;;;;;5051587;28;20059;-52
2022/06/08 06:11:25;;;;;;;3.17;2.20;;;;;;;;;;5042246;28;20112;-50
2022/06/08 06:13:51;;;;;;;2.90;2.25;;;;;;;;;;5046883;28;20025;-51
2022/06/08 06:16:17;;;;;;;6.28;2.95;;;;;;;;;;5053573;28;20028;-52
2022/06/08 06:18:43;;;;;;;3.10;1.95;;;;;;;;;;5048618;28;20021;-51
2022/06/08 06:21:14;;;;;;;4.13;2.25;;;;;;;;;;5062974;28;20372;-50
2022/06/08 06:23:40;;;;;;;5.20;2.17;;;;;;;;;;5037428;28;20374;-51
2022/06/08 06:26:06;;;;;;;4.00;2.40;;;;;;;;;;5043905;28;20094;-51
2022/06/08 06:28:32;;;;;;;3.78;2.13;;;;;;;;;;5059045;28;20055;-51
2022/06/08 06:30:58;;;;;;;3.95;2.40;;;;;;;;;;5053145;28;20033;-51
2022/06/08 06:33:24;;;;;;;5.80;2.63;;;;;;;;;;5040946;28;20028;-50
2022/06/08 06:35:50;;;;;;;3.10;1.80;;;;;;;;;;5037023;28;20027;-49
2022/06/08 06:38:16;;;;;;;3.65;2.55;;;;;;;;;;5050926;28;20476;-51
2022/06/08 06:40:42;;;;;;;4.60;2.28;;;;;;;;;;5057200;28;20112;-50
2022/06/08 06:43:10;;;;;;;3.40;2.15;;;;;;;;;;5048319;28;20060;-50
2022/06/08 06:45:36;;;;;;;2.72;2.03;;;;;;;;;;5052152;28;20044;-50
2022/06/08 06:48:02;;;;;;;7.75;1.90;;;;;;;;;;5051194;28;20025;-50
2022/06/08 06:50:28;;;;;;;2.90;1.55;;;;;;;;;;5052820;28;20402;-52
2022/06/08 06:52:54;;;;;;;1.92;1.60;;;;;;;;;;5054108;28;20025;-52
2022/06/08 06:55:25;;;;;;;2.10;1.70;;;;;;;;;;5065299;28;20024;-51
2022/06/08 06:57:51;;;;;;;2.50;1.90;;;;;;;;;;5045866;28;20029;-51
2022/06/08 07:00:17;;;;;;;3.28;1.27;;;;;;;;;;5053127;28;20110;-50
2022/06/08 07:02:43;;;;;;;2.92;1.80;;;;;;;;;;5068315;28;20039;-50
2022/06/08 07:05:19;;;;;;;5.15;1.70;;;;;;;;;;5070877;28;20484;-52
2022/06/08 07:07:46;;;;;;;2.97;1.92;;;;;;;;;;5065806;28;20039;-52
2022/06/08 07:10:12;;;;;;;2.83;1.30;;;;;;;;;;5045689;28;20031;-52
2022/06/08 07:12:38;;;;;;;3.00;1.75;;;;;;;;;;5048882;28;20025;-51
2022/06/08 07:15:04;;;;;;;2.05;1.40;;;;;;;;;;5070806;28;20497;-51
2022/06/08 07:17:30;;;;;;;2.08;1.13;;;;;;;;;;5063891;28;20100;-51
2022/06/08 07:19:56;;;;;;;3.75;1.40;;;;;;;;;;5056751;28;20515;-53
2022/06/08 07:22:22;;;;;;;2.55;1.50;;;;;;;;;;5056004;28;20472;-50
2022/06/08 07:24:48;;;;;;;2.88;1.20;;;;;;;;;;5053080;28;20550;-51
2022/06/08 07:27:14;;;;;;;2.78;1.10;;;;;;;;;;5044650;28;20029;-50
2022/06/08 07:29:40;;;;;;;2.30;1.30;;;;;;;;;;5048419;28;20110;-51
2022/06/08 07:32:06;;;;;;;2.95;1.80;;;;;;;;;;5057419;28;20095;-50
2022/06/08 07:34:32;;;;;;;2.42;1.50;;;;;;;;;;5070331;28;20027;-54
2022/06/08 07:37:00;;;;;;;1.88;1.20;;;;;;;;;;5059380;28;20122;-52
2022/06/08 07:39:26;;;;;;;1.80;1.17;;;;;;;;;;5056046;28;20036;-51
2022/06/08 07:41:53;;;;;;;3.58;1.60;;;;;;;;;;5061935;28;20385;-51
2022/06/08 07:44:20;;;;;;;1.83;1.35;;;;;;;;;;5053123;28;20120;-51
2022/06/08 07:46:46;;;;;;;1.63;1.30;;;;;;;;;;5056530;28;20484;-51
2022/06/08 07:51:58;;;;;;;2.05;1.30;;;;;;;;;;5050470;28;20040;-51
2022/06/08 07:54:26;;;;;;;2.42;1.30;;;;;;;;;;5061982;28;20045;-51
2022/06/08 07:56:53;;;;;;;5.15;1.50;;;;;;;;;;5057090;28;20025;-52
2022/06/08 07:59:19;;;;;;;3.90;1.27;;;;;;;;;;5053267;28;20460;-52
2022/06/08 08:01:45;;;;;;;3.70;1.45;;;;;;;;;;5047141;28;20579;-50
2022/06/08 08:04:11;;;;;;;3.33;1.38;;;;;;;;;;5064618;28;20029;-51
2022/06/08 08:06:37;;;;;;;2.80;1.27;;;;;;;;;;5049117;28;20436;-52
2022/06/08 08:09:03;;;;;;;5.43;1.50;;;;;;;;;;5027634;28;20483;-51
2022/06/08 08:11:29;;;;;;;2.42;1.35;;;;;;;;;;5030419;28;20040;-51
2022/06/08 08:13:55;;;;;;;2.30;1.20;;;;;;;;;;5024165;28;20477;-51
2022/06/08 08:16:21;;;;;;;1.38;1.13;;;;;;;;;;5030361;28;20034;-52
2022/06/08 08:18:48;;;;;;;1.10;1.00;;;;;;;;;;5031157;28;20026;-51
2022/06/08 08:21:14;;;;;;;2.70;1.25;;;;;;;;;;5026739;28;20029;-53
2022/06/08 08:23:40;;;;;;;1.60;1.10;;;;;;;;;;5024797;28;20720;-51
2022/06/08 08:26:06;;;;;;;1.60;0.93;;;;;;;;;;5027959;28;20036;-52
2022/06/08 08:28:32;;;;;;;1.60;1.30;;;;;;;;;;5032508;28;20033;-51
2022/06/08 08:30:58;;;;;;;1.42;1.23;;;;;;;;;;5027954;28;20032;-53
2022/06/08 08:33:24;;;;;;;1.70;1.00;;;;;;;;;;5031693;28;20026;-52
2022/06/08 08:35:52;;;;;;;3.05;0.98;;;;;;;;;;5031034;28;20040;-52
2022/06/08 08:38:21;;;;;;;3.85;0.80;;;;;;;;;;5028375;28;20044;-52
2022/06/08 08:40:50;;;;;;;3.38;1.02;;;;;;;;;;5026575;28;20026;-51
2022/06/08 08:43:21;;;;;;;3.67;0.80;;;;;;;;;;5032322;28;20037;-50
2022/06/08 08:46:17;;;;;;;0.90;0.77;;;;;;;;;;5027975;28;20033;-51
2022/06/08 08:48:43;;;;;;;4.43;0.80;;;;;;;;;;5030673;28;20499;-52
2022/06/08 08:51:23;;;;;;;2.03;0.70;;;;;;;;;;5024431;28;20485;-51
2022/06/08 08:53:48;;;;;;;1.45;1.00;;;;;;;;;;5030403;28;20057;-51
2022/06/08 08:56:19;;;;;;;0.73;0.70;;;;;;;;;;5029655;28;20070;-54
2022/06/08 08:58:45;;;;;;;1.95;1.02;;;;;;;;;;5019555;28;20116;-51
2022/06/08 09:01:17;;;;;;;1.33;0.80;;;;;;;;;;5017285;28;20041;-50
2022/06/08 09:03:45;;;;;;;2.17;0.73;;;;;;;;;;5024890;28;20444;-50
2022/06/08 09:06:16;;;;;;;2.60;0.80;;;;;;;;;;5005439;28;20157;-50
2022/06/08 09:08:43;;;;;;;4.20;0.93;;;;;;;;;;5026805;28;20049;-51
2022/06/08 09:11:13;;;;;;;2.05;1.00;;;;;;;;;;5024985;28;20038;-50
2022/06/08 09:13:53;;;;;;;1.27;0.60;;;;;;;;;;5024345;28;20052;-51
2022/06/08 09:16:35;;;;;;;2.03;0.95;;;;;;;;;;5029541;28;20485;-51
2022/06/08 09:19:01;;;;;;;2.17;0.90;;;;;;;;;;5023875;28;20358;-51
2022/06/08 09:21:33;;;;;;;1.65;0.95;;;;;;;;;;5027003;28;20091;-51
2022/06/08 09:24:03;;;;;;;2.58;0.95;;;;;;;;;;5025388;28;20034;-53
2022/06/08 09:26:31;;;;;;;1.38;0.82;;;;;;;;;;5017177;28;20037;-51
2022/06/08 09:28:59;;;;;;;0.90;0.57;;;;;;;;;;5032177;28;20029;-53
2022/06/08 09:31:27;;;;;;;1.00;0.77;;;;;;;;;;5021522;28;20030;-50
2022/06/08 09:34:03;;;;;;;0.90;0.70;;;;;;;;;;5022115;28;20037;-51
2022/06/08 09:36:29;;;;;;;2.35;0.98;;;;;;;;;;5018615;28;20034;-52
2022/06/08 09:38:55;;;;;;;1.27;0.82;;;;;;;;;;5024658;28;20033;-50
2022/06/08 09:41:30;;;;;;;1.23;0.80;;;;;;;;;;5030434;28;20026;-50
2022/06/08 09:44:15;;;;;;;1.17;0.63;;;;;;;;;;5029150;28;20108;-50
2022/06/08 09:52:47;;;;;;;0.93;0.68;;;;;;;;;;5027065;28;20428;-50
2022/06/08 09:55:24;;;;;;;1.20;0.70;;;;;;;;;;5029572;28;20035;-50
2022/06/08 09:58:08;;;;;;;2.95;0.50;;;;;;;;;;5026316;28;20389;-51
2022/06/08 10:00:47;;;;;;;1.75;0.52;;;;;;;;;;5024796;28;20053;-50
2022/06/08 10:03:21;;;;;;;1.60;0.70;;;;;;;;;;5029559;28;20529;-51
2022/06/08 10:05:55;;;;;;;0.65;0.50;;;;;;;;;;5028745;28;20388;-50
2022/06/08 10:08:23;;;;;;;1.02;0.47;;;;;;;;;;5041566;28;20051;-51
2022/06/08 10:10:57;;;;;;;1.40;0.47;;;;;;;;;;5050305;28;20078;-50
2022/06/08 10:13:29;;;;;;;0.90;0.63;;;;;;;;;;5049777;28;20028;-50
2022/06/08 10:16:00;;;;;;;0.98;0.50;;;;;;;;;;5049228;28;20477;-50
2022/06/08 10:18:27;;;;;;;1.65;0.43;;;;;;;;;;5047342;28;20504;-51
2022/06/08 10:20:55;;;;;;;0.98;0.70;;;;;;;;;;5047913;28;20108;-51
2022/06/08 10:23:36;;;;;;;1.00;0.60;;;;;;;;;;5033192;28;20142;-50
2022/06/08 10:26:08;;;;;;;1.52;0.50;;;;;;;;;;5068110;28;20082;-50
2022/06/08 10:28:49;;;;;;;1.17;0.50;;;;;;;;;;5056582;28;20055;-51
2022/06/08 10:31:23;;;;;;;2.70;0.68;;;;;;;;;;5067031;28;20101;-53
2022/06/08 10:33:51;;;;;;;1.05;0.50;;;;;;;;;;5051615;28;20503;-52
2022/06/08 10:36:19;;;;;;;0.98;0.60;;;;;;;;;;5055813;28;20751;-50
2022/06/08 10:38:45;;;;;;;2.15;0.75;;;;;;;;;;5050007;28;20021;-53
2022/06/08 10:42:39;;;;;;;2.22;0.63;;;;;;;;;;5049493;28;20028;-51
2022/06/08 10:43:59;;;;;;;0.60;0.30;;;;;;;;;;5037511;28;20041;-51
2022/06/08 10:46:30;;;;;;;0.90;0.70;;;;;;;;;;5044884;28;20581;-51
2022/06/08 10:48:56;;;;;;;0.70;0.50;;;;;;;;;;5055566;28;20480;-50
2022/06/08 10:51:24;;;;;;;1.92;0.80;;;;;;;;;;5035381;28;20056;-51
2022/06/08 10:56:38;;;;;;;0.50;0.40;;;;;;;;;;5050739;28;20495;-52
2022/06/08 10:59:04;;;;;;;1.25;0.70;;;;;;;;;;5056394;28;20025;-50
2022/06/08 11:01:48;;;;;;;0.88;0.60;;;;;;;;;;5048838;28;20400;-50
2022/06/08 11:04:43;;;;;;;1.23;0.50;;;;;;;;;;5051492;28;20029;-51
2022/06/08 11:07:10;;;;;;;1.40;0.50;;;;;;;;;;5018147;28;20125;-51
2022/06/08 11:09:36;;;;;;;0.52;0.52;;;;;;;;;;5041475;28;20046;-50
2022/06/08 11:12:11;;;;;;;0.65;0.43;;;;;;;;;;5037456;28;20082;-50
2022/06/08 11:14:43;;;;;;;3.33;0.73;;;;;;;;;;5028026;28;20025;-51
2022/06/08 11:17:21;;;;;;;1.48;0.60;;;;;;;;;;5040927;28;20021;-50
2022/06/08 11:19:47;;;;;;;0.57;0.47;;;;;;;;;;5046335;28;20040;-50
2022/06/08 11:22:20;;;;;;;1.23;0.88;;;;;;;;;;5048282;28;20029;-50
2022/06/08 11:24:48;;;;;;;3.92;0.50;;;;;;;;;;5039042;28;20037;-50
2022/06/08 11:27:20;;;;;;;0.80;0.60;;;;;;;;;;5048607;28;20036;-51
2022/06/08 11:29:49;;;;;;;0.73;0.50;;;;;;;;;;5040894;28;20037;-51
2022/06/08 11:32:27;;;;;;;3.38;0.70;;;;;;;;;;5037243;28;20063;-50
2022/06/08 11:35:02;;;;;;;0.70;0.60;;;;;;;;;;5037063;28;20021;-50
2022/06/08 11:37:49;;;;;;;1.25;0.57;;;;;;;;;;5030868;28;20521;-49
2022/06/08 11:40:27;;;;;;;1.38;0.75;;;;;;;;;;5021624;28;20109;-50
2022/06/08 11:42:56;;;;;;;2.03;0.70;;;;;;;;;;5037197;28;20612;-51
2022/06/08 11:45:44;;;;;;;1.23;0.60;;;;;;;;;;5032769;28;20092;-51
2022/06/08 11:48:15;;;;;;;0.65;0.47;;;;;;;;;;5035445;28;20028;-53
2022/06/08 11:50:52;;;;;;;0.98;0.60;;;;;;;;;;5033718;28;20030;-51
2022/06/08 11:53:20;;;;;;;0.85;0.60;;;;;;;;;;5028286;28;20026;-51
2022/06/08 11:56:13;;;;;;;2.38;0.60;;;;;;;;;;5038361;28;20030;-53
2022/06/08 11:58:42;;;;;;;1.45;0.60;;;;;;;;;;5030600;28;20451;-52
2022/06/08 12:01:11;;;;;;;0.82;0.50;;;;;;;;;;5037860;28;20026;-51
2022/06/08 12:03:45;;;;;;;0.45;0.45;;;;;;;;;;5034050;28;20444;-50
2022/06/08 12:06:14;;;;;;;1.13;0.50;;;;;;;;;;5027953;28;20037;-50
2022/06/08 12:08:42;;;;;;;1.30;0.55;;;;;;;;;;5033490;28;20049;-50
2022/06/08 12:11:12;;;;;;;1.63;0.63;;;;;;;;;;5056580;28;20082;-51
2022/06/08 12:13:38;;;;;;;0.90;0.40;;;;;;;;;;5038048;28;20029;-50
2022/06/08 12:16:22;;;;;;;1.45;0.52;;;;;;;;;;5049895;28;20032;-49
2022/06/08 12:19:02;;;;;;;0.68;0.43;;;;;;;;;;5045357;28;20037;-50
2022/06/08 12:21:29;;;;;;;1.20;0.63;;;;;;;;;;5046897;28;20102;-51
2022/06/08 12:24:07;;;;;;;1.58;0.50;;;;;;;;;;5051682;28;20025;-52
2022/06/08 12:26:38;;;;;;;2.70;0.47;;;;;;;;;;5065287;28;20573;-54
2022/06/08 12:29:19;;;;;;;1.58;0.40;;;;;;;;;;5048772;28;20025;-52
2022/06/08 12:31:47;;;;;;;0.73;0.40;;;;;;;;;;5046957;28;20037;-52
2022/06/08 12:34:26;;;;;;;0.45;0.40;;;;;;;;;;5038789;28;20083;-50
2022/06/08 12:36:52;;;;;;;1.38;0.30;;;;;;;;;;5040565;28;20892;-53
2022/06/08 12:39:18;;;;;;;3.95;0.40;;;;;;;;;;5042091;28;20026;-54
2022/06/08 12:41:49;;;;;;;0.88;0.30;;;;;;;;;;5043422;28;20424;-54
2022/06/08 12:44:20;;;;;;;0.35;0.15;;;;;;;;;;5050771;28;20040;-53
2022/06/08 12:46:51;;;;;;;3.38;0.50;;;;;;;;;;5052916;28;20025;-54
2022/06/08 12:49:21;;;;;;;0.30;0.20;;;;;;;;;;5053811;28;20021;-51
2022/06/08 12:51:49;;;;;;;0.63;0.38;;;;;;;;;;5055550;28;20064;-55
2022/06/08 12:54:20;;;;;;;1.35;0.20;;;;;;;;;;5040133;28;20503;-55
2022/06/08 12:56:49;;;;;;;0.73;0.30;;;;;;;;;;5042207;28;20029;-51
2022/06/08 12:59:15;;;;;;;7.35;0.30;;;;;;;;;;5046071;28;20523;-53
2022/06/08 13:01:44;;;;;;;0.57;0.20;;;;;;;;;;5044381;28;20455;-50
2022/06/08 13:04:10;;;;;;;0.68;0.10;;;;;;;;;;5039178;28;20021;-51
2022/06/08 13:06:36;;;;;;;0.52;0.28;;;;;;;;;;5040176;28;20060;-52
2022/06/08 13:09:03;;;;;;;0.85;0.15;;;;;;;;;;5058539;28;20052;-51
2022/06/08 13:11:29;;;;;;;0.55;0.20;;;;;;;;;;5050268;28;20021;-51
2022/06/08 13:13:55;;;;;;;2.40;0.20;;;;;;;;;;5060184;28;20020;-51
2022/06/08 13:16:23;;;;;;;2.35;0.52;;;;;;;;;;5047754;28;20082;-54
2022/06/08 13:18:51;;;;;;;0.32;0.15;;;;;;;;;;5040606;28;20080;-50
2022/06/08 13:21:17;;;;;;;0.98;0.10;;;;;;;;;;5039464;28;20463;-53
2022/06/08 13:23:43;;;;;;;0.90;0.13;;;;;;;;;;5041771;28;20025;-55
2022/06/08 13:26:14;;;;;;;0.20;0.10;;;;;;;;;;5044538;28;20028;-50
2022/06/08 13:28:41;;;;;;;1.58;0.30;;;;;;;;;;5046385;28;20039;-51
2022/06/08 13:31:09;;;;;;;0.40;0.30;;;;;;;;;;5045131;28;20744;-51
2022/06/08 13:36:24;;;;;;;0.22;0.15;;;;;;;;;;5042109;28;20039;-51
2022/06/08 13:38:51;;;;;;;1.17;0.20;;;;;;;;;;5051651;28;20021;-51
2022/06/08 13:41:17;;;;;;;0.40;0.10;;;;;;;;;;5048423;28;20112;-50
2022/06/08 13:43:44;;;;;;;0.43;0.17;;;;;;;;;;5042692;28;20033;-50
2022/06/08 13:46:15;;;;;;;1.55;0.13;;;;;;;;;;5058002;28;20119;-50
2022/06/08 13:48:41;;;;;;;0.20;0.17;;;;;;;;;;5042336;28;20048;-54
2022/06/08 13:51:07;;;;;;;0.80;0.30;;;;;;;;;;5053108;28;20053;-51
2022/06/08 13:53:33;;;;;;;2.38;0.45;;;;;;;;;;5040194;28;20032;-53
2022/06/08 13:56:01;;;;;;;0.57;0.20;;;;;;;;;;5034965;28;20030;-54
2022/06/08 13:58:28;;;;;;;0.30;0.13;;;;;;;;;;5042551;28;20122;-55
2022/06/08 14:01:00;;;;;;;0.43;0.15;;;;;;;;;;5064539;28;20103;-52
2022/06/08 14:03:29;;;;;;;0.38;0.20;;;;;;;;;;5054314;28;20503;-53
2022/06/08 14:14:13;;;;;;;1.08;0.20;;;;;;;;;;5046892;28;20090;-54
2022/06/08 14:16:43;;;;;;;1.55;0.30;;;;;;;;;;5053914;28;20526;-52
2022/06/08 14:19:15;;;;;;;0.28;0.20;;;;;;;;;;5056326;28;20112;-53
2022/06/08 14:21:42;;;;;;;0.10;0.10;;;;;;;;;;5042352;28;20032;-53
2022/06/08 14:24:16;;;;;;;0.68;0.30;;;;;;;;;;5043795;28;20082;-50
2022/06/08 14:26:42;;;;;;;0.45;0.13;;;;;;;;;;5047082;28;20033;-52
2022/06/08 14:29:08;;;;;;;0.35;0.20;;;;;;;;;;5054804;28;20021;-53
2022/06/08 14:31:36;;;;;;;0.90;0.13;;;;;;;;;;5046911;28;20041;-53
2022/06/08 14:34:03;;;;;;;0.55;0.17;;;;;;;;;;5048942;28;20067;-53
2022/06/08 14:36:29;;;;;;;4.18;0.40;;;;;;;;;;5045980;28;20503;-51
2022/06/08 14:38:55;;;;;;;1.20;0.10;;;;;;;;;;5047314;28;20028;-54
2022/06/08 14:41:37;;;;;;;1.65;0.30;;;;;;;;;;5047110;28;20024;-52
2022/06/08 14:44:03;;;;;;;0.55;0.20;;;;;;;;;;5047865;28;20105;-52
2022/06/08 14:46:30;;;;;;;0.40;0.20;;;;;;;;;;5043204;28;20032;-53
2022/06/08 14:48:56;;;;;;;0.65;0.22;;;;;;;;;;5040641;28;20384;-52
2022/06/08 14:51:22;;;;;;;0.63;0.20;;;;;;;;;;5034402;28;20427;-50
2022/06/08 14:53:50;;;;;;;0.95;0.20;;;;;;;;;;5044963;28;20079;-51
2022/06/08 14:56:24;;;;;;;0.25;0.20;;;;;;;;;;5042392;28;20028;-54
2022/06/08 14:58:53;;;;;;;1.35;0.28;;;;;;;;;;5038676;28;20031;-53
2022/06/08 15:01:20;;;;;;;3.90;0.20;;;;;;;;;;5034448;28;20044;-58
2022/06/08 15:03:47;;;;;;;0.85;0.30;;;;;;;;;;5041979;28;20159;-58
2022/06/08 15:06:13;;;;;;;0.70;0.10;;;;;;;;;;5048347;28;20405;-57
2022/06/08 15:08:40;;;;;;;2.30;0.25;;;;;;;;;;5043454;28;20091;-57
2022/06/08 15:13:54;;;;;;;1.65;0.25;;;;;;;;;;5040338;28;20547;-57
2022/06/08 15:16:20;;;;;;;1.92;0.35;;;;;;;;;;5043102;28;20032;-57
2022/06/08 15:18:46;;;;;;;0.55;0.20;;;;;;;;;;5036926;28;20029;-55
2022/06/08 15:21:12;;;;;;;0.65;0.43;;;;;;;;;;5036633;28;20452;-56
2022/06/08 15:23:39;;;;;;;3.50;0.30;;;;;;;;;;5040385;28;20032;-56